Time;durP1;ratioP1;P1;durP2;ratioP2;P2;SDS_P1;SDS_P2;PMS_P1;PMS_P2;Temp;Humidity;BMP_temperature;BMP_pressure;BME280_temperature;BME280_humidity;BME280_pressure;Samples;Min_cycle;Max_cycle;Signal;HPM_P1;HPM_P2
2021/07/13 00:00:13;;;;;;;5.05;4.65;;;;;;;;;;5062194;28;20194;-88
2021/07/13 00:02:39;;;;;;;8.18;4.85;;;;;;;;;;5045704;28;20178;-88
2021/07/13 00:05:07;;;;;;;6.65;6.05;;;;;;;;;;5022849;28;20185;-88
2021/07/13 00:07:33;;;;;;;5.90;4.80;;;;;;;;;;5024235;28;20201;-88
2021/07/13 00:09:59;;;;;;;6.67;5.97;;;;;;;;;;5060922;28;20649;-89
2021/07/13 00:12:25;;;;;;;5.68;5.10;;;;;;;;;;5060787;28;20467;-88
2021/07/13 00:14:51;;;;;;;7.10;5.35;;;;;;;;;;5046313;28;20621;-89
2021/07/13 00:17:17;;;;;;;7.70;5.53;;;;;;;;;;5018864;28;20492;-89
2021/07/13 00:19:43;;;;;;;6.40;5.77;;;;;;;;;;5016288;28;20437;-89
2021/07/13 00:22:08;;;;;;;5.57;5.07;;;;;;;;;;5033309;28;20432;-89
2021/07/13 00:24:34;;;;;;;6.27;5.53;;;;;;;;;;5060974;28;20452;-88
2021/07/13 00:27:01;;;;;;;5.83;4.50;;;;;;;;;;5060928;28;20459;-88
2021/07/13 00:29:27;;;;;;;6.40;5.57;;;;;;;;;;5017412;28;20425;-88
2021/07/13 00:31:53;;;;;;;5.85;4.80;;;;;;;;;;5016502;28;20183;-89
2021/07/13 00:34:19;;;;;;;5.60;5.10;;;;;;;;;;5011814;28;20273;-88
2021/07/13 00:36:45;;;;;;;6.47;5.75;;;;;;;;;;5060251;28;20465;-88
2021/07/13 00:39:11;;;;;;;7.72;5.70;;;;;;;;;;5061724;28;20178;-88
2021/07/13 00:41:37;;;;;;;6.03;4.93;;;;;;;;;;5039466;28;20214;-89
2021/07/13 00:44:03;;;;;;;7.55;5.82;;;;;;;;;;5023225;28;20189;-87
2021/07/13 00:46:29;;;;;;;8.85;7.90;;;;;;;;;;5026838;28;20189;-89
2021/07/13 00:48:56;;;;;;;7.10;5.70;;;;;;;;;;5059501;28;20190;-89
2021/07/13 00:51:22;;;;;;;9.27;6.10;;;;;;;;;;5060369;28;20173;-90
2021/07/13 00:53:48;;;;;;;10.73;6.05;;;;;;;;;;5045651;28;20210;-88
2021/07/13 00:56:14;;;;;;;8.32;6.47;;;;;;;;;;5060602;28;20213;-88
2021/07/13 00:58:40;;;;;;;10.32;6.72;;;;;;;;;;5022618;28;20189;-89
2021/07/13 01:01:07;;;;;;;8.60;7.07;;;;;;;;;;5026582;28;20245;-89
2021/07/13 01:03:34;;;;;;;10.73;5.53;;;;;;;;;;5059073;28;20458;-88
2021/07/13 01:06:00;;;;;;;8.07;7.35;;;;;;;;;;5045369;28;20205;-88
2021/07/13 01:08:35;;;;;;;7.68;6.72;;;;;;;;;;5017128;28;20189;-89
2021/07/13 01:11:20;;;;;;;8.98;6.57;;;;;;;;;;5017492;28;20215;-88
2021/07/13 01:13:46;;;;;;;11.00;7.40;;;;;;;;;;5059567;28;20235;-88
2021/07/13 01:16:25;;;;;;;11.23;7.20;;;;;;;;;;5059272;28;20186;-88
2021/07/13 01:19:10;;;;;;;12.63;7.25;;;;;;;;;;5028922;28;20447;-88
2021/07/13 01:21:36;;;;;;;9.27;7.82;;;;;;;;;;5059344;28;20189;-88
2021/07/13 01:24:11;;;;;;;9.10;7.53;;;;;;;;;;5045860;28;20185;-89
2021/07/13 01:26:40;;;;;;;8.88;7.82;;;;;;;;;;5038820;28;20436;-89
2021/07/13 01:29:11;;;;;;;9.27;7.57;;;;;;;;;;5022116;28;20189;-86
2021/07/13 01:31:38;;;;;;;8.57;7.20;;;;;;;;;;5020760;28;20182;-87
2021/07/13 01:34:08;;;;;;;9.57;7.28;;;;;;;;;;5058720;28;20220;-86
2021/07/13 01:37:09;;;;;;;7.75;6.65;;;;;;;;;;5058841;28;20229;-88
2021/07/13 01:39:36;;;;;;;7.57;6.55;;;;;;;;;;5005056;28;20334;-87
2021/07/13 01:42:04;;;;;;;10.48;6.75;;;;;;;;;;5006932;28;20178;-89
2021/07/13 01:44:30;;;;;;;7.95;7.18;;;;;;;;;;5011599;28;20182;-87
2021/07/13 01:46:57;;;;;;;8.10;7.05;;;;;;;;;;5015338;28;20194;-88
2021/07/13 01:49:25;;;;;;;8.75;7.45;;;;;;;;;;5021562;28;20193;-88
2021/07/13 01:51:54;;;;;;;7.65;6.72;;;;;;;;;;5005258;28;20190;-88
2021/07/13 01:54:20;;;;;;;8.10;6.35;;;;;;;;;;5022068;28;20229;-87
2021/07/13 01:56:48;;;;;;;7.13;5.90;;;;;;;;;;5006834;28;20206;-88
2021/07/13 01:59:15;;;;;;;7.70;5.60;;;;;;;;;;5012048;28;20250;-86
2021/07/13 02:01:42;;;;;;;7.32;6.60;;;;;;;;;;5021369;28;20204;-88
2021/07/13 02:04:09;;;;;;;7.97;6.97;;;;;;;;;;5021672;28;20704;-87
2021/07/13 02:06:35;;;;;;;7.38;6.55;;;;;;;;;;5005761;28;20198;-88
2021/07/13 02:09:08;;;;;;;8.48;7.07;;;;;;;;;;5022761;28;20205;-88
2021/07/13 02:11:35;;;;;;;6.63;6.00;;;;;;;;;;5004845;28;20194;-88
2021/07/13 02:14:01;;;;;;;9.25;6.40;;;;;;;;;;5016138;28;20256;-88
2021/07/13 02:16:27;;;;;;;6.32;5.70;;;;;;;;;;5050414;28;20186;-88
2021/07/13 02:18:53;;;;;;;7.10;6.40;;;;;;;;;;5066406;28;20193;-89
2021/07/13 02:21:20;;;;;;;11.38;6.25;;;;;;;;;;5066057;28;20173;-87
2021/07/13 02:23:46;;;;;;;7.10;6.30;;;;;;;;;;5059524;28;20166;-87
2021/07/13 02:26:23;;;;;;;7.45;6.63;;;;;;;;;;5020489;28;20193;-88
2021/07/13 02:28:53;;;;;;;5.75;5.15;;;;;;;;;;5043146;28;20181;-88
2021/07/13 02:31:19;;;;;;;5.88;5.22;;;;;;;;;;5021375;28;20189;-90
2021/07/13 02:34:05;;;;;;;7.00;6.30;;;;;;;;;;5024863;28;20198;-88
2021/07/13 02:36:33;;;;;;;6.75;5.78;;;;;;;;;;5025536;28;20468;-88
2021/07/13 02:39:00;;;;;;;7.78;5.95;;;;;;;;;;5059509;28;20178;-89
2021/07/13 02:41:26;;;;;;;6.00;5.30;;;;;;;;;;5020727;28;20185;-89
2021/07/13 02:43:53;;;;;;;7.45;5.22;;;;;;;;;;5019187;28;20186;-87
2021/07/13 02:46:20;;;;;;;5.88;5.38;;;;;;;;;;5014476;28;20185;-90
2021/07/13 02:48:46;;;;;;;7.57;6.07;;;;;;;;;;5058560;28;20732;-89
2021/07/13 02:51:13;;;;;;;6.15;5.35;;;;;;;;;;5012529;28;20301;-85
2021/07/13 02:53:41;;;;;;;5.68;5.18;;;;;;;;;;5053720;28;20244;-89
2021/07/13 02:56:07;;;;;;;6.00;5.40;;;;;;;;;;5062337;28;20192;-89
2021/07/13 02:58:33;;;;;;;5.93;5.32;;;;;;;;;;5024031;28;20186;-88
2021/07/13 03:01:00;;;;;;;6.73;5.60;;;;;;;;;;5047190;28;20178;-89
2021/07/13 03:03:26;;;;;;;9.02;5.65;;;;;;;;;;5046456;28;20421;-89
2021/07/13 03:05:53;;;;;;;5.72;5.05;;;;;;;;;;5061106;28;20188;-88
2021/07/13 03:08:22;;;;;;;7.90;6.25;;;;;;;;;;5020359;28;20198;-87
2021/07/13 03:10:50;;;;;;;8.02;5.88;;;;;;;;;;5017755;28;20190;-89
2021/07/13 03:13:16;;;;;;;6.18;5.60;;;;;;;;;;5034349;28;20205;-85
2021/07/13 03:15:43;;;;;;;8.40;6.13;;;;;;;;;;5062159;28;20214;-89
2021/07/13 03:18:09;;;;;;;9.23;6.10;;;;;;;;;;5047409;28;20201;-88
2021/07/13 03:20:36;;;;;;;7.70;5.57;;;;;;;;;;5061865;28;20219;-88
2021/07/13 03:23:02;;;;;;;9.40;5.88;;;;;;;;;;5046202;28;20262;-89
2021/07/13 03:25:31;;;;;;;8.80;6.20;;;;;;;;;;5024402;28;20193;-88
2021/07/13 03:27:57;;;;;;;7.07;6.30;;;;;;;;;;5028108;28;20192;-87
2021/07/13 03:30:24;;;;;;;7.10;6.35;;;;;;;;;;5061741;28;20177;-87
2021/07/13 03:32:52;;;;;;;7.57;6.07;;;;;;;;;;5062098;28;20232;-89
2021/07/13 03:35:18;;;;;;;7.88;6.90;;;;;;;;;;5028648;28;20269;-89
2021/07/13 03:37:45;;;;;;;7.40;6.65;;;;;;;;;;5023935;28;20245;-89
2021/07/13 03:40:11;;;;;;;7.07;6.47;;;;;;;;;;5016372;28;20209;-88
2021/07/13 03:42:37;;;;;;;10.07;6.90;;;;;;;;;;5045184;28;20323;-87
2021/07/13 03:45:05;;;;;;;7.13;6.00;;;;;;;;;;5062923;28;20172;-88
2021/07/13 03:47:31;;;;;;;7.95;6.03;;;;;;;;;;5045387;28;20216;-89
2021/07/13 03:49:57;;;;;;;8.05;7.30;;;;;;;;;;5045404;28;20201;-89
2021/07/13 03:52:23;;;;;;;9.05;6.50;;;;;;;;;;5045603;28;20201;-89
2021/07/13 03:54:49;;;;;;;6.60;6.00;;;;;;;;;;5060547;28;20185;-88
2021/07/13 03:57:16;;;;;;;8.33;6.13;;;;;;;;;;5061773;28;20181;-85
2021/07/13 03:59:42;;;;;;;9.10;7.70;;;;;;;;;;5028992;28;20413;-89
2021/07/13 04:02:08;;;;;;;9.93;8.10;;;;;;;;;;5023061;28;20249;-87
2021/07/13 04:04:34;;;;;;;7.80;6.77;;;;;;;;;;5027241;28;20201;-88
2021/07/13 04:07:00;;;;;;;7.43;6.72;;;;;;;;;;5063202;28;20440;-89
2021/07/13 04:09:26;;;;;;;11.30;7.20;;;;;;;;;;5045775;28;20170;-88
2021/07/13 04:11:52;;;;;;;9.40;6.97;;;;;;;;;;5061467;28;20173;-88
2021/07/13 04:14:18;;;;;;;8.70;7.70;;;;;;;;;;5018968;28;20213;-88
2021/07/13 04:16:44;;;;;;;8.40;7.30;;;;;;;;;;5016160;28;20441;-89
2021/07/13 04:19:10;;;;;;;13.85;8.15;;;;;;;;;;5033129;28;20444;-86
2021/07/13 04:21:36;;;;;;;10.77;8.07;;;;;;;;;;5049561;28;20241;-87
2021/07/13 04:24:02;;;;;;;10.32;8.57;;;;;;;;;;5041429;28;20174;-88
2021/07/13 04:26:28;;;;;;;8.85;7.60;;;;;;;;;;5060023;28;20213;-89
2021/07/13 04:28:54;;;;;;;10.40;8.07;;;;;;;;;;5022090;28;20206;-88
2021/07/13 04:31:20;;;;;;;9.17;7.93;;;;;;;;;;5012546;28;20468;-89
2021/07/13 04:33:47;;;;;;;8.83;7.93;;;;;;;;;;5027213;28;20462;-88
2021/07/13 04:36:13;;;;;;;9.57;7.90;;;;;;;;;;5045937;28;20456;-85
2021/07/13 04:38:41;;;;;;;9.47;7.70;;;;;;;;;;5060147;28;20174;-88
2021/07/13 04:41:07;;;;;;;9.35;7.93;;;;;;;;;;5026684;28;20448;-88
2021/07/13 04:43:33;;;;;;;16.73;8.95;;;;;;;;;;5044137;28;20201;-87
2021/07/13 04:45:59;;;;;;;8.07;7.03;;;;;;;;;;5044739;28;20185;-88
2021/07/13 04:48:25;;;;;;;8.93;7.93;;;;;;;;;;5045072;28;20502;-88
2021/07/13 04:50:51;;;;;;;8.93;7.30;;;;;;;;;;5065847;28;20470;-88
2021/07/13 04:53:17;;;;;;;8.40;7.35;;;;;;;;;;5044789;28;20521;-86
2021/07/13 04:55:43;;;;;;;9.10;8.10;;;;;;;;;;5021895;28;20619;-86
2021/07/13 04:58:09;;;;;;;8.33;7.53;;;;;;;;;;5023251;28;20429;-87
2021/07/13 05:00:35;;;;;;;8.63;7.27;;;;;;;;;;5059733;28;20433;-87
2021/07/13 05:03:01;;;;;;;10.40;8.02;;;;;;;;;;5060410;28;20421;-87
2021/07/13 05:05:27;;;;;;;9.13;6.82;;;;;;;;;;5017093;28;20185;-88
2021/07/13 05:07:53;;;;;;;9.57;7.67;;;;;;;;;;5014864;28;20194;-87
2021/07/13 05:10:19;;;;;;;10.38;7.90;;;;;;;;;;5015850;28;20958;-86
2021/07/13 05:12:45;;;;;;;12.13;8.63;;;;;;;;;;5043932;28;20209;-88
2021/07/13 05:15:12;;;;;;;11.15;8.15;;;;;;;;;;5060251;28;20174;-89
2021/07/13 05:17:38;;;;;;;10.60;8.18;;;;;;;;;;5059745;28;20914;-87
2021/07/13 05:20:09;;;;;;;10.40;8.40;;;;;;;;;;5019376;28;20261;-86
2021/07/13 05:22:35;;;;;;;11.70;9.05;;;;;;;;;;5035356;28;20181;-85
2021/07/13 05:25:02;;;;;;;14.10;10.33;;;;;;;;;;5043707;28;20259;-87
2021/07/13 05:27:30;;;;;;;13.38;9.50;;;;;;;;;;5044089;28;20391;-86
2021/07/13 05:29:57;;;;;;;12.07;9.27;;;;;;;;;;5045167;28;20212;-88
2021/07/13 05:32:23;;;;;;;11.15;8.85;;;;;;;;;;5017707;28;20185;-86
2021/07/13 05:34:49;;;;;;;13.47;10.93;;;;;;;;;;5014682;28;20182;-85
2021/07/13 05:37:15;;;;;;;14.00;11.05;;;;;;;;;;5032275;28;20471;-86
2021/07/13 05:39:41;;;;;;;11.63;10.30;;;;;;;;;;5059203;28;20190;-87
2021/07/13 05:42:08;;;;;;;17.20;12.27;;;;;;;;;;5060373;28;20452;-86
2021/07/13 05:44:35;;;;;;;18.50;11.13;;;;;;;;;;5043462;28;20451;-89
2021/07/13 05:47:01;;;;;;;15.32;11.30;;;;;;;;;;5043248;28;20194;-87
2021/07/13 05:49:27;;;;;;;16.55;11.27;;;;;;;;;;5043847;28;20200;-88
2021/07/13 05:51:53;;;;;;;16.20;11.73;;;;;;;;;;5059224;28;20181;-88
2021/07/13 05:54:19;;;;;;;13.47;9.87;;;;;;;;;;5009731;28;20433;-87
2021/07/13 05:56:45;;;;;;;18.03;13.00;;;;;;;;;;5044977;28;20434;-85
2021/07/13 05:59:11;;;;;;;15.00;11.10;;;;;;;;;;5021655;28;20428;-88
2021/07/13 06:01:37;;;;;;;17.90;12.20;;;;;;;;;;5021150;28;20439;-88
2021/07/13 06:04:03;;;;;;;20.15;12.32;;;;;;;;;;5025180;28;20182;-88
2021/07/13 06:06:29;;;;;;;21.77;11.90;;;;;;;;;;5058708;28;20182;-87
2021/07/13 06:08:55;;;;;;;16.20;12.38;;;;;;;;;;5044117;28;20228;-88
2021/07/13 06:11:21;;;;;;;20.02;12.02;;;;;;;;;;5042729;28;20264;-87
2021/07/13 06:13:47;;;;;;;17.10;12.23;;;;;;;;;;5021932;28;20202;-87
2021/07/13 06:16:13;;;;;;;16.92;11.35;;;;;;;;;;5014451;28;20415;-87
2021/07/13 06:18:39;;;;;;;15.80;12.02;;;;;;;;;;5009455;28;20178;-89
2021/07/13 06:21:08;;;;;;;18.88;12.13;;;;;;;;;;5059129;28;20208;-83
2021/07/13 06:23:34;;;;;;;16.63;10.93;;;;;;;;;;5015215;28;20197;-87
2021/07/13 06:26:00;;;;;;;17.97;11.20;;;;;;;;;;5021966;28;20213;-86
2021/07/13 06:28:26;;;;;;;15.13;11.80;;;;;;;;;;5047317;28;20527;-87
2021/07/13 06:30:52;;;;;;;15.32;11.13;;;;;;;;;;5029307;28;20185;-89
2021/07/13 06:33:18;;;;;;;13.00;9.57;;;;;;;;;;5047065;28;20901;-87
2021/07/13 06:35:46;;;;;;;13.20;9.90;;;;;;;;;;5046856;28;20170;-87
2021/07/13 06:38:12;;;;;;;15.25;11.30;;;;;;;;;;5025229;28;20447;-87
2021/07/13 06:40:38;;;;;;;15.38;10.23;;;;;;;;;;5025576;28;20181;-88
2021/07/13 06:43:04;;;;;;;13.95;10.48;;;;;;;;;;5047303;28;20185;-87
2021/07/13 06:45:30;;;;;;;13.40;9.23;;;;;;;;;;5046440;28;20193;-87
2021/07/13 06:47:56;;;;;;;12.77;9.60;;;;;;;;;;5063107;28;20432;-87
2021/07/13 06:50:23;;;;;;;13.07;9.60;;;;;;;;;;5061861;28;20181;-89
2021/07/13 06:52:50;;;;;;;13.65;10.00;;;;;;;;;;5025326;28;20456;-89
2021/07/13 06:55:16;;;;;;;11.68;10.05;;;;;;;;;;5024697;28;20182;-89
2021/07/13 06:57:42;;;;;;;14.00;10.40;;;;;;;;;;5046571;28;20182;-88
2021/07/13 07:00:09;;;;;;;15.20;10.52;;;;;;;;;;5048497;28;20408;-85
2021/07/13 07:02:35;;;;;;;11.00;9.30;;;;;;;;;;5046610;28;20177;-88
2021/07/13 07:05:02;;;;;;;14.55;10.20;;;;;;;;;;5061163;28;20704;-87
2021/07/13 07:07:28;;;;;;;15.23;10.07;;;;;;;;;;5024770;28;20284;-88
2021/07/13 07:09:54;;;;;;;11.80;10.38;;;;;;;;;;5062000;28;20192;-87
2021/07/13 07:12:20;;;;;;;12.55;10.20;;;;;;;;;;5047068;28;20241;-88
2021/07/13 07:14:46;;;;;;;14.10;9.77;;;;;;;;;;5048049;28;20188;-86
2021/07/13 07:17:12;;;;;;;16.83;10.57;;;;;;;;;;5062027;28;20174;-87
2021/07/13 07:19:38;;;;;;;16.93;11.43;;;;;;;;;;5045693;28;20212;-87
2021/07/13 07:22:04;;;;;;;11.47;9.87;;;;;;;;;;5028542;28;20583;-89
2021/07/13 07:24:30;;;;;;;12.63;10.63;;;;;;;;;;5046427;28;20428;-87
2021/07/13 07:26:56;;;;;;;13.50;10.00;;;;;;;;;;5046915;28;20189;-87
2021/07/13 07:29:22;;;;;;;14.50;11.52;;;;;;;;;;5046822;28;20432;-87
2021/07/13 07:31:50;;;;;;;13.10;11.47;;;;;;;;;;5046517;28;20224;-86
2021/07/13 07:34:16;;;;;;;14.32;9.75;;;;;;;;;;5045176;28;20456;-86
2021/07/13 07:36:43;;;;;;;12.38;10.02;;;;;;;;;;5045168;28;20216;-87
2021/07/13 07:39:09;;;;;;;15.05;9.75;;;;;;;;;;5058323;28;20233;-89
2021/07/13 07:41:35;;;;;;;14.57;11.38;;;;;;;;;;5046283;28;20210;-86
2021/07/13 07:44:01;;;;;;;16.70;10.50;;;;;;;;;;5023962;28;20185;-88
2021/07/13 07:46:27;;;;;;;14.50;9.10;;;;;;;;;;5023068;28;20186;-88
2021/07/13 07:48:53;;;;;;;13.88;10.82;;;;;;;;;;5044809;28;20440;-86
2021/07/13 07:51:20;;;;;;;13.67;9.40;;;;;;;;;;5012895;28;20221;-87
2021/07/13 07:53:46;;;;;;;12.57;9.63;;;;;;;;;;5062560;28;20534;-88
2021/07/13 07:56:12;;;;;;;12.23;9.63;;;;;;;;;;5045358;28;20711;-86
2021/07/13 07:58:38;;;;;;;11.27;9.95;;;;;;;;;;5028053;28;20463;-88
2021/07/13 08:01:04;;;;;;;13.40;9.37;;;;;;;;;;5046583;28;20186;-87
2021/07/13 08:03:30;;;;;;;13.70;8.85;;;;;;;;;;5059795;28;20451;-85
2021/07/13 08:05:56;;;;;;;14.63;9.38;;;;;;;;;;5061871;28;20170;-87
2021/07/13 08:08:23;;;;;;;13.30;10.05;;;;;;;;;;5045029;28;20182;-87
2021/07/13 08:10:49;;;;;;;12.35;9.75;;;;;;;;;;5060576;28;20182;-88
2021/07/13 08:13:15;;;;;;;16.25;9.05;;;;;;;;;;5044835;28;20206;-88
2021/07/13 08:15:41;;;;;;;11.73;9.90;;;;;;;;;;5044907;28;20264;-88
2021/07/13 08:18:07;;;;;;;11.07;9.05;;;;;;;;;;5045993;28;20233;-86
2021/07/13 08:20:33;;;;;;;14.32;7.90;;;;;;;;;;5061245;28;20260;-89
2021/07/13 08:22:59;;;;;;;12.20;8.90;;;;;;;;;;5045368;28;20185;-89
2021/07/13 08:25:25;;;;;;;14.93;9.07;;;;;;;;;;5060086;28;20436;-89
2021/07/13 08:27:51;;;;;;;11.27;7.93;;;;;;;;;;5060471;28;20499;-87
2021/07/13 08:30:17;;;;;;;10.68;9.13;;;;;;;;;;5045428;28;20416;-88
2021/07/13 08:32:43;;;;;;;14.43;9.30;;;;;;;;;;5061548;28;20278;-88
2021/07/13 08:35:11;;;;;;;17.92;9.02;;;;;;;;;;5022501;28;20185;-87
2021/07/13 08:37:37;;;;;;;10.73;7.95;;;;;;;;;;5015969;28;20234;-89
2021/07/13 08:40:04;;;;;;;12.85;9.07;;;;;;;;;;5040432;28;20178;-89
2021/07/13 08:42:31;;;;;;;13.57;8.50;;;;;;;;;;5045734;28;20162;-89
2021/07/13 08:44:57;;;;;;;16.25;8.20;;;;;;;;;;5060791;28;20174;-88
2021/07/13 08:47:23;;;;;;;11.40;7.90;;;;;;;;;;5016958;28;20190;-86
2021/07/13 08:49:51;;;;;;;11.27;8.32;;;;;;;;;;5015179;28;20445;-89
2021/07/13 08:52:17;;;;;;;11.18;7.72;;;;;;;;;;5016111;28;20204;-86
2021/07/13 08:54:43;;;;;;;9.30;7.70;;;;;;;;;;5060045;28;20186;-90
2021/07/13 08:57:10;;;;;;;9.83;7.07;;;;;;;;;;5061012;28;20441;-86
2021/07/13 08:59:36;;;;;;;12.68;8.50;;;;;;;;;;5026239;28;20443;-88
2021/07/13 09:02:02;;;;;;;12.13;7.72;;;;;;;;;;5043707;28;20750;-89
2021/07/13 09:04:32;;;;;;;12.35;7.97;;;;;;;;;;5026246;28;20582;-88
2021/07/13 09:06:58;;;;;;;11.38;7.57;;;;;;;;;;5026414;28;20186;-87
2021/07/13 09:09:34;;;;;;;13.00;7.70;;;;;;;;;;5044355;28;20173;-87
2021/07/13 09:12:06;;;;;;;10.35;6.70;;;;;;;;;;5059764;28;20177;-88
2021/07/13 09:14:51;;;;;;;9.98;7.75;;;;;;;;;;5043530;28;20201;-88
2021/07/13 09:17:36;;;;;;;9.85;6.90;;;;;;;;;;5043245;28;20190;-86
2021/07/13 09:20:08;;;;;;;10.57;7.18;;;;;;;;;;5022733;28;20181;-87
2021/07/13 09:22:34;;;;;;;8.02;7.03;;;;;;;;;;5022380;28;20272;-88
2021/07/13 09:25:00;;;;;;;10.80;6.68;;;;;;;;;;5059604;28;20181;-87
2021/07/13 09:27:28;;;;;;;8.68;6.47;;;;;;;;;;5059997;28;20166;-87
2021/07/13 09:29:54;;;;;;;8.70;7.20;;;;;;;;;;5057984;28;20165;-88
2021/07/13 09:32:31;;;;;;;10.45;6.60;;;;;;;;;;5044355;28;20266;-87
2021/07/13 09:35:03;;;;;;;8.48;6.50;;;;;;;;;;5021893;28;20192;-88
2021/07/13 09:37:30;;;;;;;7.15;5.80;;;;;;;;;;5025508;28;20277;-88
2021/07/13 09:39:59;;;;;;;8.50;5.75;;;;;;;;;;5044098;28;20249;-87
2021/07/13 09:42:26;;;;;;;6.40;5.55;;;;;;;;;;5010517;28;20170;-85
2021/07/13 09:44:52;;;;;;;7.85;6.78;;;;;;;;;;5059570;28;20172;-87
2021/07/13 09:47:28;;;;;;;11.43;7.18;;;;;;;;;;5021547;28;20182;-87
2021/07/13 09:49:54;;;;;;;8.40;7.18;;;;;;;;;;5020328;28;20189;-85
2021/07/13 09:52:24;;;;;;;9.75;6.40;;;;;;;;;;5011367;28;20183;-87
2021/07/13 09:54:50;;;;;;;11.00;7.90;;;;;;;;;;5058974;28;20178;-86
2021/07/13 09:57:16;;;;;;;11.77;8.57;;;;;;;;;;5059341;28;20180;-86
2021/07/13 09:59:44;;;;;;;11.82;8.68;;;;;;;;;;5042842;28;20256;-86
2021/07/13 10:02:10;;;;;;;10.75;8.88;;;;;;;;;;5043570;28;20641;-86
2021/07/13 10:04:37;;;;;;;10.63;8.65;;;;;;;;;;5058368;28;20204;-86
2021/07/13 10:07:05;;;;;;;9.93;7.72;;;;;;;;;;5058063;28;20192;-86
2021/07/13 10:09:33;;;;;;;14.02;10.88;;;;;;;;;;5058704;28;20197;-86
2021/07/13 10:11:59;;;;;;;12.60;9.68;;;;;;;;;;5059726;28;20182;-87
2021/07/13 10:14:25;;;;;;;19.17;10.65;;;;;;;;;;5042380;28;20232;-86
2021/07/13 10:16:52;;;;;;;17.48;10.77;;;;;;;;;;5020378;28;20234;-87
2021/07/13 10:19:18;;;;;;;14.85;9.27;;;;;;;;;;5031725;28;20192;-86
2021/07/13 10:21:46;;;;;;;17.60;10.43;;;;;;;;;;5060065;28;20174;-87
2021/07/13 10:24:13;;;;;;;13.68;10.48;;;;;;;;;;5056012;28;20196;-87
2021/07/13 10:26:52;;;;;;;13.73;9.90;;;;;;;;;;5014037;28;20225;-86
2021/07/13 10:29:30;;;;;;;19.15;11.10;;;;;;;;;;5039962;28;20211;-87
2021/07/13 10:31:56;;;;;;;17.85;11.30;;;;;;;;;;5020201;28;20190;-86
2021/07/13 10:34:41;;;;;;;12.55;10.68;;;;;;;;;;5014929;28;20209;-87
2021/07/13 10:37:24;;;;;;;17.92;12.00;;;;;;;;;;5058795;28;20654;-86
2021/07/13 10:39:50;;;;;;;18.80;11.20;;;;;;;;;;5029019;28;20177;-86
2021/07/13 10:42:35;;;;;;;18.03;11.40;;;;;;;;;;5059219;28;20198;-86
2021/07/13 10:45:19;;;;;;;16.27;11.15;;;;;;;;;;5058309;28;20816;-87
2021/07/13 10:48:04;;;;;;;18.88;11.18;;;;;;;;;;5043749;28;20182;-86
2021/07/13 10:50:30;;;;;;;19.95;11.70;;;;;;;;;;5058333;28;20190;-88
2021/07/13 10:52:59;;;;;;;17.77;11.50;;;;;;;;;;5021012;28;20573;-88
2021/07/13 10:55:31;;;;;;;17.02;12.93;;;;;;;;;;5025767;28;20492;-87
2021/07/13 10:58:10;;;;;;;17.98;10.70;;;;;;;;;;5024499;28;20193;-85
2021/07/13 11:00:49;;;;;;;19.33;11.82;;;;;;;;;;5042588;28;20178;-86
2021/07/13 11:03:30;;;;;;;20.60;12.35;;;;;;;;;;5043558;28;20170;-87
2021/07/13 11:05:56;;;;;;;15.57;11.20;;;;;;;;;;5060232;28;20205;-87
2021/07/13 11:08:41;;;;;;;29.43;13.73;;;;;;;;;;5020687;28;20652;-88
2021/07/13 11:11:19;;;;;;;23.50;12.30;;;;;;;;;;5017971;28;20419;-87
2021/07/13 11:14:05;;;;;;;28.25;13.70;;;;;;;;;;5039064;28;20205;-87
2021/07/13 11:16:33;;;;;;;21.40;13.35;;;;;;;;;;5046313;28;20180;-86
2021/07/13 11:19:00;;;;;;;23.77;12.43;;;;;;;;;;5045939;28;20186;-86
2021/07/13 11:21:27;;;;;;;25.85;12.40;;;;;;;;;;5046567;28;20177;-86
2021/07/13 11:23:54;;;;;;;26.90;13.20;;;;;;;;;;5047595;28;20185;-85
2021/07/13 11:26:21;;;;;;;23.70;11.13;;;;;;;;;;5019080;28;20636;-87
2021/07/13 11:28:48;;;;;;;25.42;13.50;;;;;;;;;;5039558;28;20190;-87
2021/07/13 11:31:20;;;;;;;26.00;12.98;;;;;;;;;;5061932;28;20178;-87
2021/07/13 11:33:53;;;;;;;24.75;13.00;;;;;;;;;;5030801;28;20205;-87
2021/07/13 11:36:29;;;;;;;30.92;15.13;;;;;;;;;;5046170;28;20352;-87
2021/07/13 11:38:57;;;;;;;23.83;12.35;;;;;;;;;;5060378;28;20173;-87
2021/07/13 11:41:24;;;;;;;18.20;12.13;;;;;;;;;;5046530;28;20652;-87
2021/07/13 11:43:55;;;;;;;20.73;11.95;;;;;;;;;;5023803;28;20193;-87
2021/07/13 11:46:22;;;;;;;25.77;12.52;;;;;;;;;;5046144;28;20223;-86
2021/07/13 11:48:55;;;;;;;20.92;13.63;;;;;;;;;;5027532;28;20190;-87
2021/07/13 11:51:26;;;;;;;17.48;12.02;;;;;;;;;;5061547;28;20228;-87
2021/07/13 11:54:07;;;;;;;26.35;12.40;;;;;;;;;;5061899;28;20583;-87
2021/07/13 11:56:34;;;;;;;22.17;10.85;;;;;;;;;;5022564;28;20177;-85
2021/07/13 11:59:01;;;;;;;19.83;11.73;;;;;;;;;;5045753;28;20182;-86
2021/07/13 12:01:28;;;;;;;19.55;12.45;;;;;;;;;;5028140;28;20181;-87
2021/07/13 12:03:54;;;;;;;22.17;11.23;;;;;;;;;;5060401;28;20283;-86
2021/07/13 12:06:22;;;;;;;19.98;12.05;;;;;;;;;;5045692;28;20637;-86
2021/07/13 12:08:52;;;;;;;19.08;10.70;;;;;;;;;;5044799;28;20216;-86
2021/07/13 12:11:21;;;;;;;16.38;10.85;;;;;;;;;;5022466;28;20186;-86
2021/07/13 12:13:47;;;;;;;18.70;11.13;;;;;;;;;;5023334;28;20281;-85
2021/07/13 12:16:24;;;;;;;20.53;11.60;;;;;;;;;;5016343;28;20253;-86
2021/07/13 12:18:50;;;;;;;20.85;11.30;;;;;;;;;;5028578;28;20489;-86
2021/07/13 12:21:17;;;;;;;17.27;11.15;;;;;;;;;;5061194;28;20193;-86
2021/07/13 12:23:43;;;;;;;15.48;10.27;;;;;;;;;;5043663;28;20197;-86
2021/07/13 12:26:22;;;;;;;14.82;10.60;;;;;;;;;;5045193;28;20187;-85
2021/07/13 12:29:06;;;;;;;20.60;11.82;;;;;;;;;;5044289;28;20187;-85
2021/07/13 12:31:35;;;;;;;19.38;12.43;;;;;;;;;;5027039;28;20186;-86
2021/07/13 12:34:03;;;;;;;15.52;10.85;;;;;;;;;;5044599;28;20261;-85
2021/07/13 12:36:30;;;;;;;18.40;11.10;;;;;;;;;;5044676;28;20683;-85
2021/07/13 12:38:57;;;;;;;23.30;11.13;;;;;;;;;;5044873;28;20166;-86
2021/07/13 12:41:29;;;;;;;18.75;10.50;;;;;;;;;;5044941;28;20279;-86
2021/07/13 12:43:55;;;;;;;14.90;11.02;;;;;;;;;;5044677;28;20190;-87
2021/07/13 12:46:31;;;;;;;18.37;11.30;;;;;;;;;;5022404;28;20261;-85
2021/07/13 12:48:57;;;;;;;17.08;10.60;;;;;;;;;;5025609;28;20437;-85
2021/07/13 12:51:24;;;;;;;24.17;11.82;;;;;;;;;;5044591;28;20181;-89
2021/07/13 12:54:03;;;;;;;18.60;12.82;;;;;;;;;;5045076;28;20229;-86
2021/07/13 12:56:30;;;;;;;21.58;12.95;;;;;;;;;;5017085;28;20235;-85
2021/07/13 12:59:09;;;;;;;19.38;13.15;;;;;;;;;;5038094;28;20654;-85
2021/07/13 13:01:36;;;;;;;13.43;10.77;;;;;;;;;;5021395;28;20187;-85
2021/07/13 13:04:11;;;;;;;25.42;15.88;;;;;;;;;;5026696;28;20241;-86
2021/07/13 13:06:38;;;;;;;21.75;14.32;;;;;;;;;;5027156;28;20178;-86
2021/07/13 13:09:12;;;;;;;27.05;14.43;;;;;;;;;;5023376;28;20179;-86
2021/07/13 13:11:39;;;;;;;23.90;17.75;;;;;;;;;;5059509;28;20674;-85
2021/07/13 13:14:07;;;;;;;38.65;16.65;;;;;;;;;;5026504;28;20205;-87
2021/07/13 13:16:36;;;;;;;33.55;20.33;;;;;;;;;;5059680;28;20181;-86
2021/07/13 13:19:02;;;;;;;42.92;21.15;;;;;;;;;;5025016;28;20642;-85
2021/07/13 13:21:30;;;;;;;36.10;20.95;;;;;;;;;;5058966;28;20185;-86
2021/07/13 13:23:58;;;;;;;42.60;21.92;;;;;;;;;;5057737;28;20185;-84
2021/07/13 13:26:24;;;;;;;46.17;21.67;;;;;;;;;;5021664;28;20182;-84
2021/07/13 13:28:51;;;;;;;43.47;21.67;;;;;;;;;;5043118;28;20215;-85
2021/07/13 13:31:17;;;;;;;53.63;23.75;;;;;;;;;;5026293;28;20186;-83
2021/07/13 13:33:44;;;;;;;43.10;21.00;;;;;;;;;;5058919;28;20209;-83
2021/07/13 13:36:17;;;;;;;41.08;20.98;;;;;;;;;;5058537;28;20263;-85
2021/07/13 13:38:53;;;;;;;46.72;19.77;;;;;;;;;;5013446;28;20680;-84
2021/07/13 13:41:19;;;;;;;35.40;17.73;;;;;;;;;;5014190;28;20177;-83
2021/07/13 13:43:45;;;;;;;38.70;18.08;;;;;;;;;;5013963;28;20617;-84
2021/07/13 13:46:12;;;;;;;34.95;18.23;;;;;;;;;;5013451;28;20178;-84
2021/07/13 13:48:38;;;;;;;46.25;19.48;;;;;;;;;;5008776;28;20198;-83
2021/07/13 13:51:04;;;;;;;35.47;18.30;;;;;;;;;;5058757;28;20178;-83
2021/07/13 13:53:30;;;;;;;37.80;21.08;;;;;;;;;;5057915;28;20209;-84
2021/07/13 13:55:56;;;;;;;40.35;19.73;;;;;;;;;;5058077;28;20173;-85
2021/07/13 13:58:22;;;;;;;41.10;18.83;;;;;;;;;;5058198;28;20196;-83
2021/07/13 14:00:48;;;;;;;40.27;18.60;;;;;;;;;;5024873;28;20433;-84
2021/07/13 14:03:14;;;;;;;44.10;20.50;;;;;;;;;;5059390;28;20459;-83
2021/07/13 14:05:40;;;;;;;36.30;17.07;;;;;;;;;;5057670;28;20859;-83
2021/07/13 14:08:06;;;;;;;32.27;18.20;;;;;;;;;;5018178;28;20438;-83
2021/07/13 14:10:32;;;;;;;37.13;19.25;;;;;;;;;;5016330;28;20441;-83
2021/07/13 14:12:58;;;;;;;35.50;18.33;;;;;;;;;;5043038;28;20223;-83
2021/07/13 14:15:24;;;;;;;40.33;21.03;;;;;;;;;;5043292;28;20419;-84
2021/07/13 14:17:51;;;;;;;43.78;20.58;;;;;;;;;;5058587;28;20451;-84
2021/07/13 14:20:17;;;;;;;41.75;20.42;;;;;;;;;;5015471;28;20213;-84
2021/07/13 14:22:44;;;;;;;36.97;20.50;;;;;;;;;;5034813;28;20195;-83
2021/07/13 14:25:12;;;;;;;39.08;19.80;;;;;;;;;;5022280;28;20178;-83
2021/07/13 14:27:38;;;;;;;32.50;18.00;;;;;;;;;;5017112;28;20623;-84
2021/07/13 14:30:05;;;;;;;36.15;19.15;;;;;;;;;;5025755;28;20166;-83
2021/07/13 14:32:31;;;;;;;38.08;20.02;;;;;;;;;;5024726;28;20188;-83